Peterson, Utah
Current Conditions -  °F | °C
As of 1:58 PM on Friday 31 Oct 2014 (Local Time) from KHIF Reporting Station
Few Clouds Few Clouds  
Wind Chill: 73°   Ceiling: Unl
Heat Index: 73°   Visibility: 10mi
Dew Point: 24°   Wind: 25mph
Humidity: 16%   Direction: 200°SSW
Pressure: 29.92"   Gusts: 33mph
Location:  41.0884°N, 111.576°W
Report Text: KHIF 311958Z 20022G29KT 10SM FEW180 23/M04 A2992 RMK AO2A PK WND 18029/16 SLP082 MIDFLD WND 190/18G26KT T02251043
Loading
Personal Weather Stations






























Interactive Weather Map
Tropical Storm Tracking
New forecast layout! Learn more

10-Day Weather Forecast

Advertisements
Track Severe Weather on mobile